Terminal Aerodrome Forecast
Issued by NWS

Home | Current Version | Previous Version | Text Only | Print | Product List | Glossary On
Versions: 1 2 3 4 5 6 7 8 9 10 11 12 13 14 15 16 17 18 19 20 21 22 23 24 25 26 27 28 29 30 31 32
000
FTUS41 KCTP 252328
TAFJST
TAF
KJST 252328Z 2600/2624 28015G25KT P6SM BKN030
     FM260300 30015G25KT P6SM SCT025
     FM261100 32018G32KT P6SM BKN025
     FM261500 33018G32KT P6SM BKN035=

USA.gov is the U.S. government's official web portal to all federal, state and local government web resources and services.